sensor_id;sensor_type;location;lat;lon;timestamp;temperature;humidity
26947;DHT22;14501;52.282;10.560;2024-02-14T00:02:09;5.50;99.90
26947;DHT22;14501;52.282;10.560;2024-02-14T00:04:35;5.60;99.90
26947;DHT22;14501;52.282;10.560;2024-02-14T00:07:00;6.00;99.90
26947;DHT22;14501;52.282;10.560;2024-02-14T00:09:26;5.80;99.90
26947;DHT22;14501;52.282;10.560;2024-02-14T00:11:51;5.90;99.90
26947;DHT22;14501;52.282;10.560;2024-02-14T00:14:17;6.00;99.90
26947;DHT22;14501;52.282;10.560;2024-02-14T00:16:45;6.10;99.90
26947;DHT22;14501;52.282;10.560;2024-02-14T00:19:11;6.10;99.90
26947;DHT22;14501;52.282;10.560;2024-02-14T00:21:37;7.90;99.90
26947;DHT22;14501;52.282;10.560;2024-02-14T00:26:30;6.30;99.90
26947;DHT22;14501;52.282;10.560;2024-02-14T00:28:56;6.30;99.90
26947;DHT22;14501;52.282;10.560;2024-02-14T00:31:21;7.80;99.90
26947;DHT22;14501;52.282;10.560;2024-02-14T00:33:47;6.40;99.90
26947;DHT22;14501;52.282;10.560;2024-02-14T00:36:12;6.40;99.90
26947;DHT22;14501;52.282;10.560;2024-02-14T00:38:38;6.40;99.90
26947;DHT22;14501;52.282;10.560;2024-02-14T00:41:04;7.90;99.90
26947;DHT22;14501;52.282;10.560;2024-02-14T00:43:29;6.30;99.90
26947;DHT22;14501;52.282;10.560;2024-02-14T00:45:55;6.30;99.90
26947;DHT22;14501;52.282;10.560;2024-02-14T00:48:22;6.30;99.90
26947;DHT22;14501;52.282;10.560;2024-02-14T00:50:48;6.30;99.90
26947;DHT22;14501;52.282;10.560;2024-02-14T00:53:14;6.30;99.90
26947;DHT22;14501;52.282;10.560;2024-02-14T00:55:40;6.20;99.90
26947;DHT22;14501;52.282;10.560;2024-02-14T00:58:06;6.30;99.90
26947;DHT22;14501;52.282;10.560;2024-02-14T01:00:31;6.70;99.90
26947;DHT22;14501;52.282;10.560;2024-02-14T01:02:57;6.30;99.90
26947;DHT22;14501;52.282;10.560;2024-02-14T01:05:24;6.70;99.90
26947;DHT22;14501;52.282;10.560;2024-02-14T01:07:49;7.90;99.90
26947;DHT22;14501;52.282;10.560;2024-02-14T01:10:15;6.30;99.90
26947;DHT22;14501;52.282;10.560;2024-02-14T01:12:40;6.40;99.90
26947;DHT22;14501;52.282;10.560;2024-02-14T01:15:06;6.40;99.90
26947;DHT22;14501;52.282;10.560;2024-02-14T01:17:32;6.20;99.90
26947;DHT22;14501;52.282;10.560;2024-02-14T01:20:01;6.30;99.90
26947;DHT22;14501;52.282;10.560;2024-02-14T01:22:27;7.20;99.90
26947;DHT22;14501;52.282;10.560;2024-02-14T01:24:52;8.00;99.90
26947;DHT22;14501;52.282;10.560;2024-02-14T01:27:18;6.30;99.90
26947;DHT22;14501;52.282;10.560;2024-02-14T01:32:10;6.30;99.90
26947;DHT22;14501;52.282;10.560;2024-02-14T01:34:36;6.60;99.90
26947;DHT22;14501;52.282;10.560;2024-02-14T01:37:01;7.80;99.90
26947;DHT22;14501;52.282;10.560;2024-02-14T01:39:27;6.30;99.90
26947;DHT22;14501;52.282;10.560;2024-02-14T01:41:52;6.20;99.90
26947;DHT22;14501;52.282;10.560;2024-02-14T01:44:18;6.10;99.90
26947;DHT22;14501;52.282;10.560;2024-02-14T01:46:44;5.50;99.90
26947;DHT22;14501;52.282;10.560;2024-02-14T01:49:13;6.00;99.90
26947;DHT22;14501;52.282;10.560;2024-02-14T01:51:42;5.90;99.90
26947;DHT22;14501;52.282;10.560;2024-02-14T01:54:11;5.80;99.90
26947;DHT22;14501;52.282;10.560;2024-02-14T01:56:37;5.80;99.90
26947;DHT22;14501;52.282;10.560;2024-02-14T01:59:03;5.60;99.90
26947;DHT22;14501;52.282;10.560;2024-02-14T02:01:31;5.50;99.90
26947;DHT22;14501;52.282;10.560;2024-02-14T02:03:57;5.60;99.90
26947;DHT22;14501;52.282;10.560;2024-02-14T02:06:23;5.50;99.90
26947;DHT22;14501;52.282;10.560;2024-02-14T02:11:15;5.60;99.90
26947;DHT22;14501;52.282;10.560;2024-02-14T02:13:41;5.40;99.90
26947;DHT22;14501;52.282;10.560;2024-02-14T02:16:06;5.60;99.90
26947;DHT22;14501;52.282;10.560;2024-02-14T02:18:33;5.70;99.90
26947;DHT22;14501;52.282;10.560;2024-02-14T02:20:59;5.80;99.90
26947;DHT22;14501;52.282;10.560;2024-02-14T02:25:50;5.90;99.90
26947;DHT22;14501;52.282;10.560;2024-02-14T02:28:16;6.00;99.90
26947;DHT22;14501;52.282;10.560;2024-02-14T02:30:43;8.20;99.90
26947;DHT22;14501;52.282;10.560;2024-02-14T02:33:11;6.00;99.90
26947;DHT22;14501;52.282;10.560;2024-02-14T02:35:39;5.80;99.90
26947;DHT22;14501;52.282;10.560;2024-02-14T02:38:04;6.10;99.90
26947;DHT22;14501;52.282;10.560;2024-02-14T02:40:30;6.00;99.90
26947;DHT22;14501;52.282;10.560;2024-02-14T02:42:56;6.90;99.90
26947;DHT22;14501;52.282;10.560;2024-02-14T02:45:22;8.10;99.90
26947;DHT22;14501;52.282;10.560;2024-02-14T02:47:47;6.00;99.90
26947;DHT22;14501;52.282;10.560;2024-02-14T02:52:39;6.10;99.90
26947;DHT22;14501;52.282;10.560;2024-02-14T02:55:07;6.10;99.90
26947;DHT22;14501;52.282;10.560;2024-02-14T02:57:32;6.10;99.90
26947;DHT22;14501;52.282;10.560;2024-02-14T02:59:59;6.10;99.90
26947;DHT22;14501;52.282;10.560;2024-02-14T03:02:25;6.10;99.90
26947;DHT22;14501;52.282;10.560;2024-02-14T03:04:51;7.90;99.90
26947;DHT22;14501;52.282;10.560;2024-02-14T03:07:18;9.00;99.90
26947;DHT22;14501;52.282;10.560;2024-02-14T03:09:44;6.40;99.90
26947;DHT22;14501;52.282;10.560;2024-02-14T03:12:10;6.10;99.90
26947;DHT22;14501;52.282;10.560;2024-02-14T03:14:36;6.10;99.90
26947;DHT22;14501;52.282;10.560;2024-02-14T03:17:02;6.10;99.90
26947;DHT22;14501;52.282;10.560;2024-02-14T03:19:28;6.10;99.90
26947;DHT22;14501;52.282;10.560;2024-02-14T03:21:54;6.70;99.90
26947;DHT22;14501;52.282;10.560;2024-02-14T03:24:20;8.20;99.90
26947;DHT22;14501;52.282;10.560;2024-02-14T03:29:12;6.10;99.90
26947;DHT22;14501;52.282;10.560;2024-02-14T03:36:31;6.10;99.90
26947;DHT22;14501;52.282;10.560;2024-02-14T03:38:58;6.20;99.90
26947;DHT22;14501;52.282;10.560;2024-02-14T03:41:24;6.10;99.90
26947;DHT22;14501;52.282;10.560;2024-02-14T03:46:18;6.20;99.90
26947;DHT22;14501;52.282;10.560;2024-02-14T03:48:46;6.30;99.90
26947;DHT22;14501;52.282;10.560;2024-02-14T03:51:13;6.20;99.90
26947;DHT22;14501;52.282;10.560;2024-02-14T03:53:39;6.10;99.90
26947;DHT22;14501;52.282;10.560;2024-02-14T03:56:05;6.20;99.90
26947;DHT22;14501;52.282;10.560;2024-02-14T03:58:33;6.20;99.90
26947;DHT22;14501;52.282;10.560;2024-02-14T04:01:00;6.20;99.90
26947;DHT22;14501;52.282;10.560;2024-02-14T04:03:27;6.20;99.90
26947;DHT22;14501;52.282;10.560;2024-02-14T04:05:54;6.20;99.90
26947;DHT22;14501;52.282;10.560;2024-02-14T04:08:20;6.50;99.90
26947;DHT22;14501;52.282;10.560;2024-02-14T04:10:45;5.70;99.90
26947;DHT22;14501;52.282;10.560;2024-02-14T04:13:11;6.10;99.90
26947;DHT22;14501;52.282;10.560;2024-02-14T04:15:37;8.10;99.90
26947;DHT22;14501;52.282;10.560;2024-02-14T04:20:31;6.00;99.90
26947;DHT22;14501;52.282;10.560;2024-02-14T04:25:24;5.90;99.90
26947;DHT22;14501;52.282;10.560;2024-02-14T04:27:49;8.30;99.90
26947;DHT22;14501;52.282;10.560;2024-02-14T04:32:41;5.80;99.90
26947;DHT22;14501;52.282;10.560;2024-02-14T04:35:08;5.80;99.90
26947;DHT22;14501;52.282;10.560;2024-02-14T04:37:34;8.30;99.90
26947;DHT22;14501;52.282;10.560;2024-02-14T04:39:59;7.30;99.90
26947;DHT22;14501;52.282;10.560;2024-02-14T04:42:25;7.90;99.90
26947;DHT22;14501;52.282;10.560;2024-02-14T04:44:50;7.70;99.90
26947;DHT22;14501;52.282;10.560;2024-02-14T04:47:16;7.70;99.90
26947;DHT22;14501;52.282;10.560;2024-02-14T04:52:07;5.80;99.90
26947;DHT22;14501;52.282;10.560;2024-02-14T04:54:33;8.40;99.90
26947;DHT22;14501;52.282;10.560;2024-02-14T04:56:59;8.60;99.90
26947;DHT22;14501;52.282;10.560;2024-02-14T04:59:25;5.70;99.90
26947;DHT22;14501;52.282;10.560;2024-02-14T05:01:50;5.90;99.90
26947;DHT22;14501;52.282;10.560;2024-02-14T05:04:18;5.90;99.90
26947;DHT22;14501;52.282;10.560;2024-02-14T05:06:44;5.90;99.90
26947;DHT22;14501;52.282;10.560;2024-02-14T05:09:10;6.50;99.90
26947;DHT22;14501;52.282;10.560;2024-02-14T05:11:40;8.00;99.90
26947;DHT22;14501;52.282;10.560;2024-02-14T05:14:05;6.10;99.90
26947;DHT22;14501;52.282;10.560;2024-02-14T05:16:31;6.10;99.90
26947;DHT22;14501;52.282;10.560;2024-02-14T05:18:57;5.30;99.90
26947;DHT22;14501;52.282;10.560;2024-02-14T05:23:48;6.20;99.90
26947;DHT22;14501;52.282;10.560;2024-02-14T05:26:15;8.80;99.90
26947;DHT22;14501;52.282;10.560;2024-02-14T05:31:07;6.30;99.90
26947;DHT22;14501;52.282;10.560;2024-02-14T05:33:33;6.30;99.90
26947;DHT22;14501;52.282;10.560;2024-02-14T05:35:59;6.40;99.90
26947;DHT22;14501;52.282;10.560;2024-02-14T05:38:25;6.10;99.90
26947;DHT22;14501;52.282;10.560;2024-02-14T05:40:51;6.20;99.90
26947;DHT22;14501;52.282;10.560;2024-02-14T05:43:17;7.10;99.90
26947;DHT22;14501;52.282;10.560;2024-02-14T05:45:43;6.40;99.90
26947;DHT22;14501;52.282;10.560;2024-02-14T05:48:09;8.30;99.90
26947;DHT22;14501;52.282;10.560;2024-02-14T05:50:35;7.90;99.90
26947;DHT22;14501;52.282;10.560;2024-02-14T05:53:01;8.40;99.90
26947;DHT22;14501;52.282;10.560;2024-02-14T05:55:28;6.50;99.90
26947;DHT22;14501;52.282;10.560;2024-02-14T05:57:53;6.50;99.90
26947;DHT22;14501;52.282;10.560;2024-02-14T06:00:20;6.30;99.90
26947;DHT22;14501;52.282;10.560;2024-02-14T06:02:48;6.50;99.90
26947;DHT22;14501;52.282;10.560;2024-02-14T06:05:15;9.20;99.90
26947;DHT22;14501;52.282;10.560;2024-02-14T06:07:41;6.50;99.90
26947;DHT22;14501;52.282;10.560;2024-02-14T06:12:34;6.50;99.90
26947;DHT22;14501;52.282;10.560;2024-02-14T06:15:01;9.20;99.90
26947;DHT22;14501;52.282;10.560;2024-02-14T06:17:28;6.50;99.90
26947;DHT22;14501;52.282;10.560;2024-02-14T06:19:57;6.60;99.90
26947;DHT22;14501;52.282;10.560;2024-02-14T06:22:24;6.60;99.90
26947;DHT22;14501;52.282;10.560;2024-02-14T06:24:50;6.60;99.90
26947;DHT22;14501;52.282;10.560;2024-02-14T06:27:16;6.60;99.90
26947;DHT22;14501;52.282;10.560;2024-02-14T06:29:44;7.70;99.90
26947;DHT22;14501;52.282;10.560;2024-02-14T06:32:13;6.60;99.90
26947;DHT22;14501;52.282;10.560;2024-02-14T06:34:39;6.40;99.90
26947;DHT22;14501;52.282;10.560;2024-02-14T06:37:05;8.10;99.90
26947;DHT22;14501;52.282;10.560;2024-02-14T06:39:30;6.80;99.90
26947;DHT22;14501;52.282;10.560;2024-02-14T06:41:56;9.10;99.90
26947;DHT22;14501;52.282;10.560;2024-02-14T06:44:23;8.90;99.90
26947;DHT22;14501;52.282;10.560;2024-02-14T06:46:48;7.30;99.90
26947;DHT22;14501;52.282;10.560;2024-02-14T06:49:16;6.90;99.90
26947;DHT22;14501;52.282;10.560;2024-02-14T06:54:07;7.20;99.90
26947;DHT22;14501;52.282;10.560;2024-02-14T06:56:33;7.10;99.90
26947;DHT22;14501;52.282;10.560;2024-02-14T06:58:59;7.10;99.90
26947;DHT22;14501;52.282;10.560;2024-02-14T07:03:52;7.10;99.90
26947;DHT22;14501;52.282;10.560;2024-02-14T07:08:44;7.00;99.90
26947;DHT22;14501;52.282;10.560;2024-02-14T07:11:10;9.30;99.90
26947;DHT22;14501;52.282;10.560;2024-02-14T07:13:36;7.10;99.90
26947;DHT22;14501;52.282;10.560;2024-02-14T07:16:02;7.00;99.90
26947;DHT22;14501;52.282;10.560;2024-02-14T07:18:27;7.00;99.90
26947;DHT22;14501;52.282;10.560;2024-02-14T07:20:53;7.10;99.90
26947;DHT22;14501;52.282;10.560;2024-02-14T07:23:20;7.10;99.90
26947;DHT22;14501;52.282;10.560;2024-02-14T07:25:46;7.00;99.90
26947;DHT22;14501;52.282;10.560;2024-02-14T07:28:12;6.50;99.90
26947;DHT22;14501;52.282;10.560;2024-02-14T07:30:37;7.10;99.90
26947;DHT22;14501;52.282;10.560;2024-02-14T07:33:03;6.70;99.90
26947;DHT22;14501;52.282;10.560;2024-02-14T07:35:29;7.10;99.90
26947;DHT22;14501;52.282;10.560;2024-02-14T07:37:55;8.70;99.90
26947;DHT22;14501;52.282;10.560;2024-02-14T07:40:22;7.70;99.90
26947;DHT22;14501;52.282;10.560;2024-02-14T07:42:47;8.60;99.90
26947;DHT22;14501;52.282;10.560;2024-02-14T07:45:14;7.30;99.90
26947;DHT22;14501;52.282;10.560;2024-02-14T07:47:40;7.10;99.90
26947;DHT22;14501;52.282;10.560;2024-02-14T07:50:09;8.60;99.90
26947;DHT22;14501;52.282;10.560;2024-02-14T07:52:34;7.10;99.90
26947;DHT22;14501;52.282;10.560;2024-02-14T07:55:01;7.10;99.90
26947;DHT22;14501;52.282;10.560;2024-02-14T07:57:27;7.10;99.90
26947;DHT22;14501;52.282;10.560;2024-02-14T07:59:53;7.10;99.90
26947;DHT22;14501;52.282;10.560;2024-02-14T08:02:19;7.10;99.90
26947;DHT22;14501;52.282;10.560;2024-02-14T08:04:45;7.10;99.90
26947;DHT22;14501;52.282;10.560;2024-02-14T08:07:11;7.20;99.90
26947;DHT22;14501;52.282;10.560;2024-02-14T08:09:37;7.10;99.90
26947;DHT22;14501;52.282;10.560;2024-02-14T08:12:04;7.20;99.90
26947;DHT22;14501;52.282;10.560;2024-02-14T08:14:30;7.30;99.90
26947;DHT22;14501;52.282;10.560;2024-02-14T08:16:56;7.20;99.90
26947;DHT22;14501;52.282;10.560;2024-02-14T08:19:22;7.30;99.90
26947;DHT22;14501;52.282;10.560;2024-02-14T08:21:47;7.30;99.90
26947;DHT22;14501;52.282;10.560;2024-02-14T08:24:13;7.30;99.90
26947;DHT22;14501;52.282;10.560;2024-02-14T08:26:38;7.40;99.90
26947;DHT22;14501;52.282;10.560;2024-02-14T08:29:04;7.40;99.90
26947;DHT22;14501;52.282;10.560;2024-02-14T08:31:30;7.40;99.90
26947;DHT22;14501;52.282;10.560;2024-02-14T08:33:56;7.40;99.90
26947;DHT22;14501;52.282;10.560;2024-02-14T08:36:22;7.50;99.90
26947;DHT22;14501;52.282;10.560;2024-02-14T08:38:48;7.50;99.90
26947;DHT22;14501;52.282;10.560;2024-02-14T08:41:13;7.50;99.90
26947;DHT22;14501;52.282;10.560;2024-02-14T08:43:43;7.50;99.90
26947;DHT22;14501;52.282;10.560;2024-02-14T08:46:10;7.50;99.90
26947;DHT22;14501;52.282;10.560;2024-02-14T08:48:37;7.60;99.90
26947;DHT22;14501;52.282;10.560;2024-02-14T08:51:07;7.60;99.90
26947;DHT22;14501;52.282;10.560;2024-02-14T08:53:35;7.60;99.90
26947;DHT22;14501;52.282;10.560;2024-02-14T08:56:01;7.70;99.90
26947;DHT22;14501;52.282;10.560;2024-02-14T08:58:26;7.70;99.90
26947;DHT22;14501;52.282;10.560;2024-02-14T09:00:52;7.70;99.90
26947;DHT22;14501;52.282;10.560;2024-02-14T09:03:19;7.80;99.90
26947;DHT22;14501;52.282;10.560;2024-02-14T09:05:45;7.80;99.90
26947;DHT22;14501;52.282;10.560;2024-02-14T09:08:12;7.90;99.90
26947;DHT22;14501;52.282;10.560;2024-02-14T09:10:38;7.90;99.90
26947;DHT22;14501;52.282;10.560;2024-02-14T09:13:04;7.90;99.90
26947;DHT22;14501;52.282;10.560;2024-02-14T09:15:30;7.90;99.90
26947;DHT22;14501;52.282;10.560;2024-02-14T09:17:58;7.90;99.90
26947;DHT22;14501;52.282;10.560;2024-02-14T09:20:25;7.90;99.90
26947;DHT22;14501;52.282;10.560;2024-02-14T09:22:51;7.90;99.90
26947;DHT22;14501;52.282;10.560;2024-02-14T09:25:19;7.90;99.90
26947;DHT22;14501;52.282;10.560;2024-02-14T09:27:44;7.90;99.90
26947;DHT22;14501;52.282;10.560;2024-02-14T09:30:12;7.90;99.90
26947;DHT22;14501;52.282;10.560;2024-02-14T09:32:38;8.00;99.90
26947;DHT22;14501;52.282;10.560;2024-02-14T09:35:04;8.00;99.90
26947;DHT22;14501;52.282;10.560;2024-02-14T09:37:32;8.00;99.90
26947;DHT22;14501;52.282;10.560;2024-02-14T09:39:58;8.10;99.90
26947;DHT22;14501;52.282;10.560;2024-02-14T09:42:42;8.10;99.90
26947;DHT22;14501;52.282;10.560;2024-02-14T09:45:09;8.10;99.90
26947;DHT22;14501;52.282;10.560;2024-02-14T09:47:35;8.20;99.90
26947;DHT22;14501;52.282;10.560;2024-02-14T09:50:03;8.20;99.90
26947;DHT22;14501;52.282;10.560;2024-02-14T09:52:33;8.20;99.90
26947;DHT22;14501;52.282;10.560;2024-02-14T09:54:59;8.20;99.90
26947;DHT22;14501;52.282;10.560;2024-02-14T09:57:26;8.30;99.90
26947;DHT22;14501;52.282;10.560;2024-02-14T09:59:54;8.40;99.90
26947;DHT22;14501;52.282;10.560;2024-02-14T10:02:21;8.50;99.90
26947;DHT22;14501;52.282;10.560;2024-02-14T10:04:47;8.70;99.90
26947;DHT22;14501;52.282;10.560;2024-02-14T10:07:13;8.80;99.90
26947;DHT22;14501;52.282;10.560;2024-02-14T10:09:42;8.90;99.90
26947;DHT22;14501;52.282;10.560;2024-02-14T10:12:09;9.00;99.90
26947;DHT22;14501;52.282;10.560;2024-02-14T10:14:35;9.10;99.90
26947;DHT22;14501;52.282;10.560;2024-02-14T10:17:03;9.10;99.90
26947;DHT22;14501;52.282;10.560;2024-02-14T10:19:29;9.10;99.90
26947;DHT22;14501;52.282;10.560;2024-02-14T10:21:58;9.00;99.90
26947;DHT22;14501;52.282;10.560;2024-02-14T10:24:26;9.10;99.90
26947;DHT22;14501;52.282;10.560;2024-02-14T10:26:53;9.00;99.90
26947;DHT22;14501;52.282;10.560;2024-02-14T10:29:20;9.10;99.90
26947;DHT22;14501;52.282;10.560;2024-02-14T10:31:48;9.10;99.90
26947;DHT22;14501;52.282;10.560;2024-02-14T10:34:15;9.20;99.90
26947;DHT22;14501;52.282;10.560;2024-02-14T10:36:43;9.20;99.90
26947;DHT22;14501;52.282;10.560;2024-02-14T10:39:11;9.20;99.90
26947;DHT22;14501;52.282;10.560;2024-02-14T10:41:37;9.30;99.90
26947;DHT22;14501;52.282;10.560;2024-02-14T10:44:03;9.30;99.90
26947;DHT22;14501;52.282;10.560;2024-02-14T10:46:33;9.30;99.90
26947;DHT22;14501;52.282;10.560;2024-02-14T10:49:05;9.20;99.90
26947;DHT22;14501;52.282;10.560;2024-02-14T10:51:33;9.30;99.90
26947;DHT22;14501;52.282;10.560;2024-02-14T10:54:05;9.40;99.90
26947;DHT22;14501;52.282;10.560;2024-02-14T10:56:38;9.60;99.90
26947;DHT22;14501;52.282;10.560;2024-02-14T10:59:04;9.80;99.90
26947;DHT22;14501;52.282;10.560;2024-02-14T11:01:31;9.80;99.90
26947;DHT22;14501;52.282;10.560;2024-02-14T11:04:03;10.00;99.90
26947;DHT22;14501;52.282;10.560;2024-02-14T11:06:30;10.10;99.90
26947;DHT22;14501;52.282;10.560;2024-02-14T11:08:57;10.20;99.90
26947;DHT22;14501;52.282;10.560;2024-02-14T11:11:22;10.30;99.90
26947;DHT22;14501;52.282;10.560;2024-02-14T11:13:53;10.50;99.90
26947;DHT22;14501;52.282;10.560;2024-02-14T11:16:25;10.50;99.90
26947;DHT22;14501;52.282;10.560;2024-02-14T11:18:54;10.60;99.90
26947;DHT22;14501;52.282;10.560;2024-02-14T11:21:30;11.00;99.90
26947;DHT22;14501;52.282;10.560;2024-02-14T11:23:57;11.20;99.90
26947;DHT22;14501;52.282;10.560;2024-02-14T11:26:46;11.30;99.90
26947;DHT22;14501;52.282;10.560;2024-02-14T11:29:17;11.40;99.90
26947;DHT22;14501;52.282;10.560;2024-02-14T11:31:44;11.60;99.90
26947;DHT22;14501;52.282;10.560;2024-02-14T11:34:17;11.60;99.90
26947;DHT22;14501;52.282;10.560;2024-02-14T11:36:43;11.60;99.90
26947;DHT22;14501;52.282;10.560;2024-02-14T11:39:10;11.70;99.90
26947;DHT22;14501;52.282;10.560;2024-02-14T11:41:37;11.80;99.90
26947;DHT22;14501;52.282;10.560;2024-02-14T11:44:06;11.70;99.90
26947;DHT22;14501;52.282;10.560;2024-02-14T11:46:33;11.80;99.90
26947;DHT22;14501;52.282;10.560;2024-02-14T11:49:00;11.80;99.90
26947;DHT22;14501;52.282;10.560;2024-02-14T11:51:29;11.80;99.90
26947;DHT22;14501;52.282;10.560;2024-02-14T11:53:56;11.70;99.90
26947;DHT22;14501;52.282;10.560;2024-02-14T11:56:22;11.70;99.90
26947;DHT22;14501;52.282;10.560;2024-02-14T11:58:49;11.70;99.90
26947;DHT22;14501;52.282;10.560;2024-02-14T12:01:17;11.70;99.90
26947;DHT22;14501;52.282;10.560;2024-02-14T12:03:43;11.60;99.90
26947;DHT22;14501;52.282;10.560;2024-02-14T12:06:10;11.60;99.90
26947;DHT22;14501;52.282;10.560;2024-02-14T12:08:36;11.50;99.90
26947;DHT22;14501;52.282;10.560;2024-02-14T12:11:02;11.50;99.90
26947;DHT22;14501;52.282;10.560;2024-02-14T12:13:30;11.60;99.90
26947;DHT22;14501;52.282;10.560;2024-02-14T12:15:58;11.80;99.90
26947;DHT22;14501;52.282;10.560;2024-02-14T12:18:24;12.00;99.90
26947;DHT22;14501;52.282;10.560;2024-02-14T12:20:50;12.10;99.90
26947;DHT22;14501;52.282;10.560;2024-02-14T12:23:18;12.10;99.90
26947;DHT22;14501;52.282;10.560;2024-02-14T12:25:45;12.20;99.90
26947;DHT22;14501;52.282;10.560;2024-02-14T12:28:16;12.20;99.90
26947;DHT22;14501;52.282;10.560;2024-02-14T12:30:49;12.40;99.90
26947;DHT22;14501;52.282;10.560;2024-02-14T12:33:17;12.30;99.90
26947;DHT22;14501;52.282;10.560;2024-02-14T12:35:47;12.30;99.90
26947;DHT22;14501;52.282;10.560;2024-02-14T12:38:14;12.40;99.90
26947;DHT22;14501;52.282;10.560;2024-02-14T12:40:41;12.30;99.90
26947;DHT22;14501;52.282;10.560;2024-02-14T12:43:08;12.30;99.90
26947;DHT22;14501;52.282;10.560;2024-02-14T12:45:34;12.20;99.90
26947;DHT22;14501;52.282;10.560;2024-02-14T12:48:00;12.40;99.90
26947;DHT22;14501;52.282;10.560;2024-02-14T12:50:26;12.00;99.90
26947;DHT22;14501;52.282;10.560;2024-02-14T12:52:52;12.00;99.90
26947;DHT22;14501;52.282;10.560;2024-02-14T12:55:17;12.00;99.90
26947;DHT22;14501;52.282;10.560;2024-02-14T12:57:44;12.10;99.90
26947;DHT22;14501;52.282;10.560;2024-02-14T13:00:11;12.20;99.90
26947;DHT22;14501;52.282;10.560;2024-02-14T13:02:37;12.00;99.90
26947;DHT22;14501;52.282;10.560;2024-02-14T13:05:04;12.00;99.90
26947;DHT22;14501;52.282;10.560;2024-02-14T13:07:31;12.10;99.90
26947;DHT22;14501;52.282;10.560;2024-02-14T13:09:56;12.20;99.90
26947;DHT22;14501;52.282;10.560;2024-02-14T13:12:22;12.30;99.90
26947;DHT22;14501;52.282;10.560;2024-02-14T13:14:48;12.20;99.90
26947;DHT22;14501;52.282;10.560;2024-02-14T13:17:14;12.20;99.90
26947;DHT22;14501;52.282;10.560;2024-02-14T13:19:40;12.20;99.90
26947;DHT22;14501;52.282;10.560;2024-02-14T13:22:08;12.20;99.90
26947;DHT22;14501;52.282;10.560;2024-02-14T13:24:34;12.10;99.90
26947;DHT22;14501;52.282;10.560;2024-02-14T13:27:00;12.10;99.90
26947;DHT22;14501;52.282;10.560;2024-02-14T13:29:26;12.00;99.90
26947;DHT22;14501;52.282;10.560;2024-02-14T13:31:52;12.00;99.90
26947;DHT22;14501;52.282;10.560;2024-02-14T13:34:18;12.00;99.90
26947;DHT22;14501;52.282;10.560;2024-02-14T13:36:47;12.00;99.90
26947;DHT22;14501;52.282;10.560;2024-02-14T13:39:13;12.10;99.90
26947;DHT22;14501;52.282;10.560;2024-02-14T13:41:39;12.30;99.90
26947;DHT22;14501;52.282;10.560;2024-02-14T13:44:08;12.40;99.90
26947;DHT22;14501;52.282;10.560;2024-02-14T13:46:34;12.50;99.90
26947;DHT22;14501;52.282;10.560;2024-02-14T13:49:00;12.40;99.90
26947;DHT22;14501;52.282;10.560;2024-02-14T13:51:26;12.30;99.90
26947;DHT22;14501;52.282;10.560;2024-02-14T13:53:53;12.10;99.90
26947;DHT22;14501;52.282;10.560;2024-02-14T13:56:18;11.90;99.90
26947;DHT22;14501;52.282;10.560;2024-02-14T13:58:47;11.70;99.90
26947;DHT22;14501;52.282;10.560;2024-02-14T14:01:14;11.60;99.90
26947;DHT22;14501;52.282;10.560;2024-02-14T14:03:40;11.50;99.90
26947;DHT22;14501;52.282;10.560;2024-02-14T14:06:07;11.30;99.90
26947;DHT22;14501;52.282;10.560;2024-02-14T14:08:34;11.30;99.90
26947;DHT22;14501;52.282;10.560;2024-02-14T14:11:02;11.30;99.90
26947;DHT22;14501;52.282;10.560;2024-02-14T14:13:29;11.20;99.90
26947;DHT22;14501;52.282;10.560;2024-02-14T14:15:57;11.20;99.90
26947;DHT22;14501;52.282;10.560;2024-02-14T14:18:22;11.20;99.90
26947;DHT22;14501;52.282;10.560;2024-02-14T14:20:49;11.10;99.90
26947;DHT22;14501;52.282;10.560;2024-02-14T14:23:14;11.20;99.90
26947;DHT22;14501;52.282;10.560;2024-02-14T14:25:41;11.20;99.90
26947;DHT22;14501;52.282;10.560;2024-02-14T14:28:07;11.20;99.90
26947;DHT22;14501;52.282;10.560;2024-02-14T14:30:35;11.10;99.90
26947;DHT22;14501;52.282;10.560;2024-02-14T14:33:01;11.10;99.90
26947;DHT22;14501;52.282;10.560;2024-02-14T14:35:27;11.20;99.90
26947;DHT22;14501;52.282;10.560;2024-02-14T14:37:54;11.10;99.90
26947;DHT22;14501;52.282;10.560;2024-02-14T14:40:20;11.40;99.90
26947;DHT22;14501;52.282;10.560;2024-02-14T14:42:47;11.00;99.90
26947;DHT22;14501;52.282;10.560;2024-02-14T14:45:13;11.10;99.90
26947;DHT22;14501;52.282;10.560;2024-02-14T14:47:39;11.10;99.90
26947;DHT22;14501;52.282;10.560;2024-02-14T14:50:05;11.10;99.90
26947;DHT22;14501;52.282;10.560;2024-02-14T14:52:32;11.10;99.90
26947;DHT22;14501;52.282;10.560;2024-02-14T14:54:58;11.10;99.90
26947;DHT22;14501;52.282;10.560;2024-02-14T14:57:25;11.20;99.90
26947;DHT22;14501;52.282;10.560;2024-02-14T14:59:50;11.20;99.90
26947;DHT22;14501;52.282;10.560;2024-02-14T15:02:16;11.30;99.90
26947;DHT22;14501;52.282;10.560;2024-02-14T15:04:41;11.30;99.90
26947;DHT22;14501;52.282;10.560;2024-02-14T15:07:09;11.30;99.90
26947;DHT22;14501;52.282;10.560;2024-02-14T15:09:35;11.20;99.90
26947;DHT22;14501;52.282;10.560;2024-02-14T15:14:27;11.10;99.90
26947;DHT22;14501;52.282;10.560;2024-02-14T15:16:52;11.20;99.90
26947;DHT22;14501;52.282;10.560;2024-02-14T15:19:18;11.10;99.90
26947;DHT22;14501;52.282;10.560;2024-02-14T15:21:44;11.10;99.90
26947;DHT22;14501;52.282;10.560;2024-02-14T15:24:09;11.10;99.90
26947;DHT22;14501;52.282;10.560;2024-02-14T15:26:35;11.10;99.90
26947;DHT22;14501;52.282;10.560;2024-02-14T15:29:16;11.20;99.90
26947;DHT22;14501;52.282;10.560;2024-02-14T15:32:01;11.10;99.90
26947;DHT22;14501;52.282;10.560;2024-02-14T15:34:45;11.10;99.90
26947;DHT22;14501;52.282;10.560;2024-02-14T15:37:11;11.00;99.90
26947;DHT22;14501;52.282;10.560;2024-02-14T15:39:38;10.90;99.90
26947;DHT22;14501;52.282;10.560;2024-02-14T15:42:03;10.90;99.90
26947;DHT22;14501;52.282;10.560;2024-02-14T15:44:29;10.80;99.90
26947;DHT22;14501;52.282;10.560;2024-02-14T15:46:54;11.40;99.90
26947;DHT22;14501;52.282;10.560;2024-02-14T15:49:20;10.70;99.90
26947;DHT22;14501;52.282;10.560;2024-02-14T15:51:46;10.60;99.90
26947;DHT22;14501;52.282;10.560;2024-02-14T15:54:13;10.60;99.90
26947;DHT22;14501;52.282;10.560;2024-02-14T15:56:39;10.20;99.90
26947;DHT22;14501;52.282;10.560;2024-02-14T15:59:05;10.50;99.90
26947;DHT22;14501;52.282;10.560;2024-02-14T16:01:30;10.50;99.90
26947;DHT22;14501;52.282;10.560;2024-02-14T16:03:56;10.40;99.90
26947;DHT22;14501;52.282;10.560;2024-02-14T16:06:21;10.50;99.90
26947;DHT22;14501;52.282;10.560;2024-02-14T16:08:47;10.50;99.90
26947;DHT22;14501;52.282;10.560;2024-02-14T16:11:13;10.50;99.90